Time;durP1;ratioP1;P1;durP2;ratioP2;P2;SDS_P1;SDS_P2;PMS_P1;PMS_P2;Temp;Humidity;BMP_temperature;BMP_pressure;BME280_temperature;BME280_humidity;BME280_pressure;Samples;Min_cycle;Max_cycle;Signal;HPM_P1;HPM_P2
2021/12/20 00:01:26;;;;;;;17.60;11.30;;;;;;;;;;5032883;28;20926;-67
2021/12/20 00:03:52;;;;;;;18.20;10.53;;;;;;;;;;5032465;28;20918;-66
2021/12/20 00:06:18;;;;;;;17.13;10.23;;;;;;;;;;5032553;28;20395;-66
2021/12/20 00:08:44;;;;;;;20.27;10.70;;;;;;;;;;5032249;28;20506;-66
2021/12/20 00:11:10;;;;;;;24.20;12.17;;;;;;;;;;5032350;28;20892;-66
2021/12/20 00:13:36;;;;;;;15.77;10.70;;;;;;;;;;5035176;28;20410;-66
2021/12/20 00:16:02;;;;;;;21.93;12.30;;;;;;;;;;5036060;28;20797;-66
2021/12/20 00:18:28;;;;;;;19.70;11.57;;;;;;;;;;5034818;28;20525;-66
2021/12/20 00:20:55;;;;;;;17.53;11.10;;;;;;;;;;5035802;28;20469;-65
2021/12/20 00:23:21;;;;;;;25.20;14.03;;;;;;;;;;5035719;28;20537;-66
2021/12/20 00:25:48;;;;;;;17.00;11.00;;;;;;;;;;5035744;28;20856;-66
2021/12/20 00:28:16;;;;;;;21.60;11.70;;;;;;;;;;5035587;28;20439;-66
2021/12/20 00:30:42;;;;;;;25.40;12.97;;;;;;;;;;5035617;28;20425;-66
2021/12/20 00:33:08;;;;;;;21.33;11.07;;;;;;;;;;5035621;28;20414;-66
2021/12/20 00:35:34;;;;;;;19.50;11.00;;;;;;;;;;5035497;28;20403;-66
2021/12/20 00:40:45;;;;;;;20.63;11.20;;;;;;;;;;5035463;28;20530;-67
2021/12/20 00:43:11;;;;;;;22.87;12.17;;;;;;;;;;5035542;28;21031;-66
2021/12/20 00:45:38;;;;;;;19.47;12.00;;;;;;;;;;5035505;28;20765;-66
2021/12/20 00:48:05;;;;;;;18.50;12.40;;;;;;;;;;5035299;28;20898;-66
2021/12/20 00:50:31;;;;;;;17.30;12.10;;;;;;;;;;5035238;28;20779;-66
2021/12/20 00:52:58;;;;;;;20.80;12.37;;;;;;;;;;5035150;28;20410;-66
2021/12/20 00:55:25;;;;;;;16.30;11.20;;;;;;;;;;5035197;28;20418;-66
2021/12/20 00:57:53;;;;;;;19.67;12.40;;;;;;;;;;5034956;28;20426;-66
2021/12/20 01:00:22;;;;;;;17.37;11.23;;;;;;;;;;5035063;28;20407;-66
2021/12/20 01:02:48;;;;;;;17.03;11.00;;;;;;;;;;5034972;28;20762;-66
2021/12/20 01:05:14;;;;;;;16.83;11.73;;;;;;;;;;5034977;28;20916;-66
2021/12/20 01:07:40;;;;;;;18.60;11.43;;;;;;;;;;5034752;28;20422;-66
2021/12/20 01:10:09;;;;;;;21.00;12.60;;;;;;;;;;5034955;28;20395;-66
2021/12/20 01:12:44;;;;;;;20.53;11.83;;;;;;;;;;5034936;28;20410;-66
2021/12/20 01:15:24;;;;;;;19.80;12.10;;;;;;;;;;5035069;28;20387;-66
2021/12/20 01:17:52;;;;;;;22.13;13.20;;;;;;;;;;5034934;28;20480;-66
2021/12/20 01:20:18;;;;;;;20.03;12.13;;;;;;;;;;5034799;28;20403;-66
2021/12/20 01:22:45;;;;;;;19.67;11.27;;;;;;;;;;5034334;28;20447;-66
2021/12/20 01:25:12;;;;;;;18.70;11.83;;;;;;;;;;5034543;28;20422;-66
2021/12/20 01:27:38;;;;;;;27.30;12.13;;;;;;;;;;5034653;28;20474;-66
2021/12/20 01:30:05;;;;;;;20.43;12.10;;;;;;;;;;5034472;28;20407;-66
2021/12/20 01:32:32;;;;;;;17.60;10.57;;;;;;;;;;5034770;28;20787;-66
2021/12/20 01:34:58;;;;;;;21.53;11.07;;;;;;;;;;5034441;28;20414;-66
2021/12/20 01:37:25;;;;;;;18.13;10.93;;;;;;;;;;5034338;28;20799;-66
2021/12/20 01:39:52;;;;;;;19.70;10.70;;;;;;;;;;5034520;28;20484;-66
2021/12/20 01:42:19;;;;;;;19.20;11.70;;;;;;;;;;5034162;28;20407;-66
2021/12/20 01:44:45;;;;;;;19.53;11.47;;;;;;;;;;5034159;28;20422;-66
2021/12/20 01:47:13;;;;;;;18.33;11.47;;;;;;;;;;5034034;28;20434;-66
2021/12/20 01:49:52;;;;;;;21.50;12.73;;;;;;;;;;5034085;28;20398;-66
2021/12/20 01:52:21;;;;;;;17.77;11.03;;;;;;;;;;5034228;28;20409;-66
2021/12/20 01:54:47;;;;;;;19.10;11.93;;;;;;;;;;5034255;28;20402;-66
2021/12/20 01:57:13;;;;;;;16.40;11.50;;;;;;;;;;5033988;28;20429;-66
2021/12/20 01:59:40;;;;;;;20.37;12.13;;;;;;;;;;5032719;28;20411;-66
2021/12/20 02:02:06;;;;;;;16.63;11.03;;;;;;;;;;5033799;28;20483;-66
2021/12/20 02:04:42;;;;;;;18.13;11.03;;;;;;;;;;5033773;28;20403;-66
2021/12/20 02:07:08;;;;;;;19.87;11.13;;;;;;;;;;5033679;28;20425;-66
2021/12/20 02:09:35;;;;;;;19.37;10.97;;;;;;;;;;5033782;28;20391;-66
2021/12/20 02:12:01;;;;;;;20.43;11.87;;;;;;;;;;5033703;28;20431;-66
2021/12/20 02:14:27;;;;;;;19.90;12.37;;;;;;;;;;5033724;28;20914;-66
2021/12/20 02:16:53;;;;;;;20.10;12.40;;;;;;;;;;5033464;28;20423;-66
2021/12/20 02:19:19;;;;;;;23.70;12.50;;;;;;;;;;5033509;28;20888;-66
2021/12/20 02:21:46;;;;;;;22.13;13.07;;;;;;;;;;5033500;28;20494;-66
2021/12/20 02:24:12;;;;;;;19.17;11.40;;;;;;;;;;5033702;28;20545;-66
2021/12/20 02:26:38;;;;;;;17.13;10.07;;;;;;;;;;5033287;28;20794;-66
2021/12/20 02:29:08;;;;;;;16.30;9.83;;;;;;;;;;5033566;28;20411;-66
2021/12/20 02:39:48;;;;;;;22.10;11.30;;;;;;;;;;5033563;28;20425;-68
2021/12/20 02:42:19;;;;;;;18.30;10.37;;;;;;;;;;5033113;28;20394;-66
2021/12/20 02:44:53;;;;;;;17.73;10.10;;;;;;;;;;5033096;28;20376;-66
2021/12/20 02:47:28;;;;;;;18.13;10.40;;;;;;;;;;5033383;28;20501;-66
2021/12/20 02:49:55;;;;;;;29.60;12.70;;;;;;;;;;5033328;28;20371;-66
2021/12/20 02:52:21;;;;;;;19.07;11.07;;;;;;;;;;5033017;28;20844;-66
2021/12/20 02:54:47;;;;;;;16.27;10.40;;;;;;;;;;5033012;28;20426;-66
2021/12/20 02:57:13;;;;;;;20.07;12.30;;;;;;;;;;5032881;28;20940;-66
2021/12/20 02:59:39;;;;;;;18.47;10.77;;;;;;;;;;5037960;28;20907;-66
2021/12/20 03:02:06;;;;;;;17.43;11.13;;;;;;;;;;5032791;28;20418;-66
2021/12/20 03:04:32;;;;;;;18.87;10.70;;;;;;;;;;5032861;28;20407;-66
2021/12/20 03:07:00;;;;;;;18.03;11.47;;;;;;;;;;5032784;28;20418;-65
2021/12/20 03:09:30;;;;;;;18.03;10.07;;;;;;;;;;5033064;28;20426;-65
2021/12/20 03:11:58;;;;;;;17.70;11.13;;;;;;;;;;5032941;28;20441;-66
2021/12/20 03:14:32;;;;;;;17.03;10.17;;;;;;;;;;5032934;28;20868;-66
2021/12/20 03:16:59;;;;;;;17.80;10.27;;;;;;;;;;5032697;28;20407;-66
2021/12/20 03:19:26;;;;;;;21.23;10.60;;;;;;;;;;5032838;28;20513;-65
2021/12/20 03:21:52;;;;;;;15.17;10.07;;;;;;;;;;5032762;28;20410;-66
2021/12/20 03:24:19;;;;;;;19.23;11.30;;;;;;;;;;5032718;28;20442;-66
2021/12/20 03:26:45;;;;;;;15.47;9.77;;;;;;;;;;5032508;28;20985;-66
2021/12/20 03:29:11;;;;;;;18.73;11.23;;;;;;;;;;5032938;28;20395;-67
2021/12/20 03:31:37;;;;;;;17.43;11.13;;;;;;;;;;5032489;28;20395;-66
2021/12/20 03:34:04;;;;;;;16.37;10.90;;;;;;;;;;5032675;28;20399;-67
2021/12/20 03:36:30;;;;;;;16.57;10.43;;;;;;;;;;5032480;28;20407;-67
2021/12/20 03:38:56;;;;;;;18.87;11.33;;;;;;;;;;5032551;28;20456;-66
2021/12/20 03:41:23;;;;;;;16.00;9.70;;;;;;;;;;5032528;28;20449;-66
2021/12/20 03:43:49;;;;;;;22.07;10.50;;;;;;;;;;5032348;28;20474;-66
2021/12/20 03:46:15;;;;;;;15.77;9.60;;;;;;;;;;5032501;28;20398;-66
2021/12/20 03:48:41;;;;;;;17.97;10.80;;;;;;;;;;5035602;28;20414;-67
2021/12/20 03:51:08;;;;;;;19.07;11.33;;;;;;;;;;5036379;28;20452;-67
2021/12/20 03:53:35;;;;;;;16.43;10.20;;;;;;;;;;5036293;28;20426;-67
2021/12/20 03:56:02;;;;;;;20.50;11.37;;;;;;;;;;5035010;28;20431;-67
2021/12/20 03:58:28;;;;;;;17.17;9.93;;;;;;;;;;5036215;28;20490;-67
2021/12/20 04:00:58;;;;;;;20.10;11.10;;;;;;;;;;5036301;28;20485;-66
2021/12/20 04:03:25;;;;;;;17.10;10.37;;;;;;;;;;5036246;28;20496;-66
2021/12/20 04:05:51;;;;;;;20.03;11.03;;;;;;;;;;5036246;28;20411;-67
2021/12/20 04:08:17;;;;;;;19.27;12.10;;;;;;;;;;5035972;28;20414;-66
2021/12/20 04:10:43;;;;;;;19.97;10.77;;;;;;;;;;5035901;28;20482;-67
2021/12/20 04:13:10;;;;;;;16.37;10.70;;;;;;;;;;5036048;28;20406;-66
2021/12/20 04:15:36;;;;;;;16.90;10.70;;;;;;;;;;5036293;28;20793;-66
2021/12/20 04:18:02;;;;;;;21.70;11.00;;;;;;;;;;5035941;28;20988;-66
2021/12/20 04:20:28;;;;;;;20.57;12.33;;;;;;;;;;5035794;28;20406;-66
2021/12/20 04:22:55;;;;;;;17.13;10.03;;;;;;;;;;5035649;28;20445;-66
2021/12/20 04:25:21;;;;;;;18.70;10.70;;;;;;;;;;5035661;28;20434;-66
2021/12/20 04:27:47;;;;;;;20.00;11.97;;;;;;;;;;5035429;28;20947;-66
2021/12/20 04:30:14;;;;;;;17.47;11.20;;;;;;;;;;5040416;28;20426;-66
2021/12/20 04:32:41;;;;;;;23.83;12.17;;;;;;;;;;5052140;28;20902;-67
2021/12/20 04:35:07;;;;;;;15.20;11.03;;;;;;;;;;5054169;28;20796;-66
2021/12/20 04:37:34;;;;;;;17.77;10.40;;;;;;;;;;5047722;28;20466;-66
2021/12/20 04:40:05;;;;;;;19.80;12.07;;;;;;;;;;5035533;28;20399;-66
2021/12/20 04:42:31;;;;;;;19.63;11.40;;;;;;;;;;5035479;28;20791;-66
2021/12/20 04:44:57;;;;;;;16.90;10.40;;;;;;;;;;5034075;28;20776;-66
2021/12/20 04:47:23;;;;;;;20.00;11.17;;;;;;;;;;5035217;28;20993;-66
2021/12/20 04:49:49;;;;;;;17.93;9.87;;;;;;;;;;5035227;28;20399;-66
2021/12/20 04:52:15;;;;;;;17.43;10.60;;;;;;;;;;5035112;28;20403;-66
2021/12/20 04:54:42;;;;;;;20.10;11.43;;;;;;;;;;5035216;28;20433;-66
2021/12/20 04:57:08;;;;;;;17.70;10.83;;;;;;;;;;5035345;28;20779;-66
2021/12/20 04:59:34;;;;;;;17.43;9.77;;;;;;;;;;5034634;28;20395;-66
2021/12/20 05:02:00;;;;;;;16.70;9.77;;;;;;;;;;5035121;28;20426;-66
2021/12/20 05:04:26;;;;;;;17.90;11.90;;;;;;;;;;5034946;28;20450;-66
2021/12/20 05:06:52;;;;;;;17.33;10.47;;;;;;;;;;5034984;28;20864;-66
2021/12/20 05:09:19;;;;;;;22.43;12.03;;;;;;;;;;5033815;28;20414;-66
2021/12/20 05:11:57;;;;;;;19.30;11.27;;;;;;;;;;5035181;28;20415;-66
2021/12/20 05:14:23;;;;;;;16.90;10.03;;;;;;;;;;5033861;28;20422;-66
2021/12/20 05:16:49;;;;;;;17.20;10.17;;;;;;;;;;5037572;28;20969;-66
2021/12/20 05:19:15;;;;;;;19.83;11.90;;;;;;;;;;5051573;28;20434;-66
2021/12/20 05:21:41;;;;;;;18.13;10.63;;;;;;;;;;5053365;28;20430;-66
2021/12/20 05:24:07;;;;;;;18.43;11.20;;;;;;;;;;5054384;28;20457;-66
2021/12/20 05:26:33;;;;;;;17.17;10.03;;;;;;;;;;5054513;28;20421;-66
2021/12/20 05:29:05;;;;;;;17.70;11.57;;;;;;;;;;5054460;28;20387;-68
2021/12/20 05:31:33;;;;;;;21.83;11.10;;;;;;;;;;5054602;28;20420;-71
2021/12/20 05:33:59;;;;;;;18.70;10.73;;;;;;;;;;5044821;28;20440;-65
2021/12/20 05:36:25;;;;;;;20.47;10.47;;;;;;;;;;5054696;28;20433;-66
2021/12/20 05:38:52;;;;;;;19.37;10.70;;;;;;;;;;5054382;28;20805;-66
2021/12/20 05:41:18;;;;;;;17.30;11.33;;;;;;;;;;5054311;28;20405;-66
2021/12/20 05:43:45;;;;;;;23.97;12.07;;;;;;;;;;5054245;28;20441;-67
2021/12/20 05:46:11;;;;;;;18.90;11.73;;;;;;;;;;5054300;28;20398;-67
2021/12/20 05:48:37;;;;;;;18.43;10.43;;;;;;;;;;5052804;28;20912;-67
2021/12/20 05:51:03;;;;;;;17.47;11.00;;;;;;;;;;5054093;28;20449;-67
2021/12/20 05:53:29;;;;;;;18.67;10.13;;;;;;;;;;5054350;28;20501;-67
2021/12/20 05:55:55;;;;;;;18.90;10.73;;;;;;;;;;5053973;28;20401;-67
2021/12/20 05:58:21;;;;;;;21.03;13.17;;;;;;;;;;5053928;28;20840;-68
2021/12/20 06:00:47;;;;;;;19.80;12.10;;;;;;;;;;5053986;28;20747;-67
2021/12/20 06:03:13;;;;;;;18.70;11.40;;;;;;;;;;5053799;28;20540;-67
2021/12/20 06:05:41;;;;;;;43.70;13.03;;;;;;;;;;5053921;28;20409;-67
2021/12/20 06:08:09;;;;;;;22.73;11.30;;;;;;;;;;5054062;28;20842;-67
2021/12/20 06:10:35;;;;;;;22.50;11.73;;;;;;;;;;5051700;28;20794;-67
2021/12/20 06:13:02;;;;;;;19.30;12.23;;;;;;;;;;5053734;28;20424;-67
2021/12/20 06:15:28;;;;;;;19.80;11.30;;;;;;;;;;5053676;28;20985;-67
2021/12/20 06:17:54;;;;;;;20.53;10.93;;;;;;;;;;5053503;28;20471;-67
2021/12/20 06:20:20;;;;;;;23.00;12.10;;;;;;;;;;5053643;28;20406;-67
2021/12/20 06:22:46;;;;;;;20.00;11.47;;;;;;;;;;5053428;28;20544;-67
2021/12/20 06:25:13;;;;;;;17.90;11.20;;;;;;;;;;5053493;28;20429;-67
2021/12/20 06:27:39;;;;;;;17.60;10.40;;;;;;;;;;5053267;28;20438;-67
2021/12/20 06:30:08;;;;;;;18.17;11.07;;;;;;;;;;5053343;28;20398;-67
2021/12/20 06:32:35;;;;;;;19.90;11.90;;;;;;;;;;5053616;28;20414;-67
2021/12/20 06:35:01;;;;;;;18.93;10.97;;;;;;;;;;5053586;28;20417;-67
2021/12/20 06:37:27;;;;;;;20.53;11.83;;;;;;;;;;5053428;28;20433;-67
2021/12/20 06:39:53;;;;;;;19.90;11.77;;;;;;;;;;5053241;28;20413;-67
2021/12/20 06:42:20;;;;;;;22.00;12.00;;;;;;;;;;5053173;28;20398;-67
2021/12/20 06:44:46;;;;;;;18.83;11.80;;;;;;;;;;5053525;28;20410;-67
2021/12/20 06:47:13;;;;;;;21.43;11.40;;;;;;;;;;5051802;28;20464;-68
2021/12/20 06:49:39;;;;;;;21.20;13.30;;;;;;;;;;5053249;28;20405;-67
2021/12/20 06:52:05;;;;;;;20.47;11.50;;;;;;;;;;5052955;28;20397;-67
2021/12/20 06:54:31;;;;;;;23.30;11.70;;;;;;;;;;5052956;28;20437;-67
2021/12/20 06:56:57;;;;;;;20.83;13.03;;;;;;;;;;5053271;28;20926;-67
2021/12/20 06:59:23;;;;;;;22.20;12.50;;;;;;;;;;5053154;28;20402;-67
2021/12/20 07:01:49;;;;;;;19.33;11.27;;;;;;;;;;5051630;28;20428;-67
2021/12/20 07:04:15;;;;;;;19.70;11.33;;;;;;;;;;5053322;28;20809;-67
2021/12/20 07:06:42;;;;;;;21.00;12.20;;;;;;;;;;5052856;28;20896;-67
2021/12/20 07:09:08;;;;;;;19.33;12.43;;;;;;;;;;5053349;28;20436;-67
2021/12/20 07:11:34;;;;;;;18.77;11.40;;;;;;;;;;5053250;28;20407;-67
2021/12/20 07:14:01;;;;;;;16.83;10.97;;;;;;;;;;5052900;28;20406;-67
2021/12/20 07:16:32;;;;;;;17.30;11.30;;;;;;;;;;5052797;28;20406;-67
2021/12/20 07:18:58;;;;;;;20.17;12.50;;;;;;;;;;5050776;28;20440;-68
2021/12/20 07:21:24;;;;;;;21.33;11.63;;;;;;;;;;5054370;28;20436;-68
2021/12/20 07:23:50;;;;;;;19.53;12.10;;;;;;;;;;5056786;28;20536;-68
2021/12/20 07:26:16;;;;;;;18.70;12.00;;;;;;;;;;5056443;28;20769;-68
2021/12/20 07:28:42;;;;;;;24.87;13.77;;;;;;;;;;5057217;28;20469;-68
2021/12/20 07:31:09;;;;;;;21.87;12.80;;;;;;;;;;5056455;28;20508;-68
2021/12/20 07:33:35;;;;;;;21.37;11.80;;;;;;;;;;5056702;28;20425;-68
2021/12/20 07:36:01;;;;;;;17.50;11.73;;;;;;;;;;5055199;28;20983;-65
2021/12/20 07:38:27;;;;;;;19.03;11.07;;;;;;;;;;5056294;28;20441;-65
2021/12/20 07:40:54;;;;;;;26.20;12.60;;;;;;;;;;5055462;28;20417;-61
2021/12/20 07:43:20;;;;;;;21.37;12.50;;;;;;;;;;5056252;28;20998;-63
2021/12/20 07:45:47;;;;;;;24.20;13.23;;;;;;;;;;5056292;28;20784;-64
2021/12/20 07:48:14;;;;;;;24.73;12.50;;;;;;;;;;5056227;28;20551;-65
2021/12/20 07:50:40;;;;;;;20.97;11.80;;;;;;;;;;5056343;28;20410;-64
2021/12/20 07:53:06;;;;;;;19.63;11.37;;;;;;;;;;5056046;28;20401;-62
2021/12/20 07:55:32;;;;;;;22.07;13.17;;;;;;;;;;5055302;28;20952;-63
2021/12/20 07:57:59;;;;;;;21.10;12.40;;;;;;;;;;5054901;28;20441;-65
2021/12/20 08:00:25;;;;;;;23.30;12.50;;;;;;;;;;5050113;28;20844;-65
2021/12/20 08:02:51;;;;;;;21.33;12.00;;;;;;;;;;5048870;28;20456;-63
2021/12/20 08:05:19;;;;;;;19.90;12.17;;;;;;;;;;5051439;28;20902;-63
2021/12/20 08:07:47;;;;;;;18.60;12.27;;;;;;;;;;5054710;28;20942;-67
2021/12/20 08:10:13;;;;;;;17.10;11.20;;;;;;;;;;5053286;28;20413;-67
2021/12/20 08:12:39;;;;;;;22.03;13.30;;;;;;;;;;5055091;28;20968;-62
2021/12/20 08:15:06;;;;;;;21.47;12.27;;;;;;;;;;5054295;28;20421;-63
2021/12/20 08:17:32;;;;;;;22.20;12.80;;;;;;;;;;5055344;28;20436;-66
2021/12/20 08:19:59;;;;;;;19.33;13.40;;;;;;;;;;5050881;28;20435;-68
2021/12/20 08:22:25;;;;;;;18.90;12.20;;;;;;;;;;5054055;28;20658;-68
2021/12/20 08:24:51;;;;;;;23.47;13.90;;;;;;;;;;5054747;28;20426;-63
2021/12/20 08:27:20;;;;;;;23.27;12.60;;;;;;;;;;5050230;28;20462;-63
2021/12/20 08:29:46;;;;;;;20.87;12.03;;;;;;;;;;5049833;28;20410;-61
2021/12/20 08:32:12;;;;;;;20.77;12.00;;;;;;;;;;5055960;28;20396;-61
2021/12/20 08:34:39;;;;;;;20.30;11.60;;;;;;;;;;5051029;28;20974;-61
2021/12/20 08:37:05;;;;;;;22.40;12.50;;;;;;;;;;5052567;28;20533;-62
2021/12/20 08:39:31;;;;;;;21.57;12.07;;;;;;;;;;5048409;28;20414;-66
2021/12/20 08:41:58;;;;;;;23.87;12.83;;;;;;;;;;5053368;28;20497;-66
2021/12/20 08:44:25;;;;;;;21.83;13.20;;;;;;;;;;5052523;28;20507;-66
2021/12/20 08:46:52;;;;;;;23.73;12.87;;;;;;;;;;5052404;28;20434;-63
2021/12/20 08:49:18;;;;;;;23.37;13.23;;;;;;;;;;5053271;28;20409;-61
2021/12/20 08:51:45;;;;;;;23.20;13.90;;;;;;;;;;5054500;28;20421;-61
2021/12/20 08:54:11;;;;;;;24.60;14.93;;;;;;;;;;5054308;28;20985;-61
2021/12/20 08:56:38;;;;;;;23.23;12.00;;;;;;;;;;5057483;28;20420;-63
2021/12/20 08:59:04;;;;;;;20.90;12.17;;;;;;;;;;5051745;28;20971;-64
2021/12/20 09:01:31;;;;;;;21.97;12.50;;;;;;;;;;5054378;28;20422;-62
2021/12/20 09:04:00;;;;;;;22.93;13.03;;;;;;;;;;5053404;28;20499;-61
2021/12/20 09:06:27;;;;;;;23.07;12.90;;;;;;;;;;5053323;28;20406;-61
2021/12/20 09:08:54;;;;;;;23.73;13.60;;;;;;;;;;5052954;28;20410;-62
2021/12/20 09:11:25;;;;;;;26.83;13.37;;;;;;;;;;5046988;28;20441;-63
2021/12/20 09:13:52;;;;;;;22.37;13.33;;;;;;;;;;5053171;28;20481;-62
2021/12/20 09:16:18;;;;;;;22.70;13.17;;;;;;;;;;5053619;28;20428;-61
2021/12/20 09:18:44;;;;;;;24.83;13.60;;;;;;;;;;5053718;28;20436;-63
2021/12/20 09:21:11;;;;;;;24.90;12.90;;;;;;;;;;5054034;28;20418;-61
2021/12/20 09:23:38;;;;;;;23.00;13.47;;;;;;;;;;5052840;28;20527;-62
2021/12/20 09:26:04;;;;;;;22.00;12.47;;;;;;;;;;5053955;28;20904;-64
2021/12/20 09:28:31;;;;;;;21.80;13.80;;;;;;;;;;5053334;28;20541;-65
2021/12/20 09:30:57;;;;;;;23.90;12.63;;;;;;;;;;5053441;28;20780;-61
2021/12/20 09:33:24;;;;;;;22.23;13.13;;;;;;;;;;5053615;28;20429;-63
2021/12/20 09:35:50;;;;;;;22.80;13.80;;;;;;;;;;5051918;28;20446;-65
2021/12/20 09:38:18;;;;;;;21.43;11.73;;;;;;;;;;5053099;28;20456;-64
2021/12/20 09:43:34;;;;;;;22.43;13.80;;;;;;;;;;5034114;28;20518;-63
2021/12/20 09:46:00;;;;;;;21.23;13.60;;;;;;;;;;5049546;28;20925;-61
2021/12/20 09:48:26;;;;;;;31.93;14.20;;;;;;;;;;5052837;28;20458;-61
2021/12/20 09:50:53;;;;;;;22.90;13.90;;;;;;;;;;5053625;28;20456;-62
2021/12/20 09:53:19;;;;;;;23.43;14.07;;;;;;;;;;5052292;28;20438;-61
2021/12/20 09:55:46;;;;;;;21.53;13.40;;;;;;;;;;5052735;28;20414;-60
2021/12/20 09:58:13;;;;;;;19.83;12.43;;;;;;;;;;5053139;28;20499;-62
2021/12/20 10:00:39;;;;;;;20.73;13.00;;;;;;;;;;5052843;28;20435;-61
2021/12/20 10:03:05;;;;;;;25.80;12.67;;;;;;;;;;5053113;28;20464;-65
2021/12/20 10:05:32;;;;;;;24.17;13.60;;;;;;;;;;5053047;28;20798;-65
2021/12/20 10:07:58;;;;;;;23.27;14.03;;;;;;;;;;5053516;28;20425;-65
2021/12/20 10:10:34;;;;;;;20.07;12.30;;;;;;;;;;5052494;28;20412;-65
2021/12/20 10:13:00;;;;;;;21.77;13.87;;;;;;;;;;5045591;28;20421;-64
2021/12/20 10:15:33;;;;;;;24.10;13.70;;;;;;;;;;5053061;28;20779;-66
2021/12/20 10:18:00;;;;;;;21.30;12.40;;;;;;;;;;5050804;28;20640;-64
2021/12/20 10:20:27;;;;;;;25.97;13.57;;;;;;;;;;5053453;28;20421;-68
2021/12/20 10:22:54;;;;;;;23.07;12.67;;;;;;;;;;5052684;28;20457;-67
2021/12/20 10:25:30;;;;;;;22.27;12.40;;;;;;;;;;5052104;28;20430;-65
2021/12/20 10:28:07;;;;;;;22.37;12.40;;;;;;;;;;5049857;28;20449;-64
2021/12/20 10:30:35;;;;;;;20.00;11.77;;;;;;;;;;5052153;28;20414;-65
2021/12/20 10:33:04;;;;;;;22.73;13.40;;;;;;;;;;5052615;28;20410;-67
2021/12/20 10:35:37;;;;;;;19.87;12.20;;;;;;;;;;5053358;28;20406;-66
2021/12/20 10:38:27;;;;;;;24.23;13.90;;;;;;;;;;5051674;28;20439;-69
2021/12/20 10:40:55;;;;;;;23.57;12.63;;;;;;;;;;5042567;28;20849;-68
2021/12/20 10:43:26;;;;;;;22.03;12.23;;;;;;;;;;5052379;28;20461;-70
2021/12/20 10:45:53;;;;;;;27.43;13.43;;;;;;;;;;5063229;28;20415;-69
2021/12/20 10:48:19;;;;;;;17.57;13.20;;;;;;;;;;5051112;28;20836;-69
2021/12/20 10:50:45;;;;;;;21.23;12.90;;;;;;;;;;5058218;28;20446;-69
2021/12/20 10:53:19;;;;;;;18.40;11.60;;;;;;;;;;5046982;28;20563;-68
2021/12/20 10:55:48;;;;;;;20.00;12.80;;;;;;;;;;5050966;28;20513;-68
2021/12/20 10:58:20;;;;;;;22.70;12.50;;;;;;;;;;5052015;28;20445;-63
2021/12/20 11:01:01;;;;;;;21.67;13.15;;;;;;;;;;5051666;28;20424;-65
2021/12/20 11:03:29;;;;;;;21.07;13.20;;;;;;;;;;5052395;28;20183;-67
2021/12/20 11:11:26;;;;;;;18.47;12.00;;;;;;;;;;5051848;28;20901;-64
2021/12/20 11:13:52;;;;;;;17.43;11.33;;;;;;;;;;5050684;28;20920;-66
2021/12/20 11:16:28;;;;;;;19.17;11.80;;;;;;;;;;5051459;28;20461;-63
2021/12/20 11:19:23;;;;;;;19.73;13.10;;;;;;;;;;5058736;28;20412;-64
2021/12/20 11:21:58;;;;;;;19.20;11.70;;;;;;;;;;5053889;28;20409;-64
2021/12/20 11:24:29;;;;;;;23.87;12.50;;;;;;;;;;5058864;28;20444;-68
2021/12/20 11:26:55;;;;;;;20.63;10.93;;;;;;;;;;5056707;28;20824;-70
2021/12/20 11:29:22;;;;;;;19.53;12.10;;;;;;;;;;5051956;28;20535;-67
2021/12/20 11:31:49;;;;;;;17.40;9.80;;;;;;;;;;5052437;28;20394;-67
2021/12/20 11:34:15;;;;;;;19.70;12.40;;;;;;;;;;5050807;28;20425;-65
2021/12/20 11:36:41;;;;;;;15.80;10.13;;;;;;;;;;5052484;28;20413;-66
2021/12/20 11:39:08;;;;;;;15.13;9.80;;;;;;;;;;5051548;28;21036;-65
2021/12/20 11:41:34;;;;;;;22.07;10.47;;;;;;;;;;5051668;28;20421;-66
2021/12/20 11:44:02;;;;;;;18.30;11.40;;;;;;;;;;5051596;28;20920;-64
2021/12/20 11:46:51;;;;;;;13.77;9.47;;;;;;;;;;5052246;28;20406;-63
2021/12/20 11:49:19;;;;;;;13.97;9.47;;;;;;;;;;5048951;28;20445;-65
2021/12/20 11:52:18;;;;;;;16.40;9.53;;;;;;;;;;5051413;28;20402;-65
2021/12/20 11:54:45;;;;;;;15.40;8.63;;;;;;;;;;5037009;28;20429;-65
2021/12/20 11:57:29;;;;;;;17.17;9.60;;;;;;;;;;5049808;28;20453;-69
2021/12/20 11:59:56;;;;;;;11.40;8.13;;;;;;;;;;5050688;28;20910;-72
2021/12/20 12:02:24;;;;;;;19.80;11.07;;;;;;;;;;5050665;28;20499;-69
2021/12/20 12:04:56;;;;;;;17.63;10.57;;;;;;;;;;5057594;28;20452;-67
2021/12/20 12:07:23;;;;;;;25.13;10.63;;;;;;;;;;5051908;28;20445;-67
2021/12/20 12:09:58;;;;;;;21.23;10.30;;;;;;;;;;5055620;28;20409;-68
2021/12/20 12:12:25;;;;;;;15.90;9.70;;;;;;;;;;5056030;28;20393;-67
2021/12/20 12:15:05;;;;;;;15.93;11.00;;;;;;;;;;5056083;28;20402;-67
2021/12/20 12:17:49;;;;;;;17.83;10.07;;;;;;;;;;5055872;28;20429;-67
2021/12/20 12:20:35;;;;;;;17.97;10.47;;;;;;;;;;5055742;28;20489;-67
2021/12/20 12:23:13;;;;;;;13.27;8.90;;;;;;;;;;5055487;28;20514;-68
2021/12/20 12:25:41;;;;;;;15.40;9.57;;;;;;;;;;5055396;28;20402;-69
2021/12/20 12:28:08;;;;;;;16.80;10.03;;;;;;;;;;5052996;28;20453;-67
2021/12/20 12:30:34;;;;;;;17.37;9.00;;;;;;;;;;5055422;28;20742;-69
2021/12/20 12:33:03;;;;;;;13.97;7.83;;;;;;;;;;5054994;28;20459;-67
2021/12/20 12:35:42;;;;;;;16.20;9.30;;;;;;;;;;5054921;28;20426;-68
2021/12/20 12:38:20;;;;;;;18.20;11.10;;;;;;;;;;5054358;28;20513;-68
2021/12/20 12:40:49;;;;;;;15.60;7.77;;;;;;;;;;5051630;28;20541;-69
2021/12/20 12:43:17;;;;;;;15.80;8.10;;;;;;;;;;5048202;28;20454;-67
2021/12/20 12:45:51;;;;;;;13.67;8.10;;;;;;;;;;5047770;28;20410;-69
2021/12/20 12:48:32;;;;;;;17.40;8.80;;;;;;;;;;5052238;28;20434;-67
2021/12/20 12:50:58;;;;;;;16.13;8.17;;;;;;;;;;5050228;28;20484;-68
2021/12/20 12:53:37;;;;;;;15.90;6.80;;;;;;;;;;5054606;28;20402;-67
2021/12/20 12:56:22;;;;;;;9.50;5.70;;;;;;;;;;5053896;28;20406;-67
2021/12/20 12:59:08;;;;;;;9.97;5.90;;;;;;;;;;5055007;28;20425;-67
2021/12/20 13:01:34;;;;;;;12.77;7.80;;;;;;;;;;5054671;28;20447;-67
2021/12/20 13:04:00;;;;;;;12.80;6.60;;;;;;;;;;5034879;28;20524;-68
2021/12/20 13:06:26;;;;;;;8.60;5.00;;;;;;;;;;5034646;28;20402;-68
2021/12/20 13:08:53;;;;;;;21.33;12.50;;;;;;;;;;5034575;28;20396;-68
2021/12/20 13:11:23;;;;;;;11.50;7.13;;;;;;;;;;5034565;28;20394;-68
2021/12/20 13:13:56;;;;;;;11.70;7.17;;;;;;;;;;5034155;28;20406;-68
2021/12/20 13:16:26;;;;;;;21.63;8.33;;;;;;;;;;5034399;28;20390;-68
2021/12/20 13:18:58;;;;;;;18.70;6.70;;;;;;;;;;5034011;28;20775;-69
2021/12/20 13:21:36;;;;;;;20.40;7.80;;;;;;;;;;5034436;28;20493;-67
2021/12/20 13:24:12;;;;;;;14.03;7.60;;;;;;;;;;5038580;28;20792;-68
2021/12/20 13:26:38;;;;;;;13.13;6.60;;;;;;;;;;5053847;28;20386;-69
2021/12/20 13:29:05;;;;;;;11.03;6.77;;;;;;;;;;5053167;28;20414;-69
2021/12/20 13:31:32;;;;;;;10.17;7.03;;;;;;;;;;5053900;28;20401;-68
2021/12/20 13:34:04;;;;;;;10.37;7.03;;;;;;;;;;5053475;28;20402;-68
2021/12/20 13:36:34;;;;;;;11.07;7.40;;;;;;;;;;5052188;28;20414;-68
2021/12/20 13:39:01;;;;;;;13.70;8.10;;;;;;;;;;5053682;28;20487;-68
2021/12/20 13:41:28;;;;;;;17.50;7.70;;;;;;;;;;5053467;28;20898;-68
2021/12/20 13:43:59;;;;;;;11.20;7.17;;;;;;;;;;5053053;28;20568;-67
2021/12/20 13:46:39;;;;;;;14.60;7.60;;;;;;;;;;5053440;28;20854;-69
2021/12/20 13:49:05;;;;;;;11.00;6.47;;;;;;;;;;5051707;28;20743;-70
2021/12/20 13:51:34;;;;;;;10.27;6.07;;;;;;;;;;5057424;28;20463;-68
2021/12/20 13:54:00;;;;;;;14.23;7.43;;;;;;;;;;5052706;28;20410;-68
2021/12/20 13:56:26;;;;;;;11.67;6.33;;;;;;;;;;5053318;28;20398;-68
2021/12/20 13:58:53;;;;;;;15.20;4.60;;;;;;;;;;5053300;28;20947;-68
2021/12/20 14:01:23;;;;;;;9.97;5.80;;;;;;;;;;5053196;28;20429;-67
2021/12/20 14:03:49;;;;;;;26.67;6.87;;;;;;;;;;5053032;28;20445;-67
2021/12/20 14:06:33;;;;;;;15.47;6.10;;;;;;;;;;5050275;28;20402;-67
2021/12/20 14:09:04;;;;;;;7.57;3.93;;;;;;;;;;5053502;28;20397;-68
2021/12/20 14:11:30;;;;;;;10.50;4.80;;;;;;;;;;5053777;28;20401;-67
2021/12/20 14:14:08;;;;;;;6.23;4.30;;;;;;;;;;5052193;28;20398;-68
2021/12/20 14:16:54;;;;;;;6.83;4.67;;;;;;;;;;5053084;28;20798;-68
2021/12/20 14:19:21;;;;;;;16.50;3.90;;;;;;;;;;5053342;28;20404;-68
2021/12/20 14:21:47;;;;;;;12.43;4.40;;;;;;;;;;5052984;28;20394;-68
2021/12/20 14:24:13;;;;;;;4.87;3.80;;;;;;;;;;5052632;28;21004;-68
2021/12/20 14:26:39;;;;;;;10.17;4.30;;;;;;;;;;5052727;28;20448;-68
2021/12/20 14:29:08;;;;;;;8.20;4.47;;;;;;;;;;5052998;28;20844;-69
2021/12/20 14:31:40;;;;;;;11.93;5.00;;;;;;;;;;5052168;28;20927;-67
2021/12/20 14:34:08;;;;;;;9.20;5.20;;;;;;;;;;5052701;28;20402;-67
2021/12/20 14:36:38;;;;;;;10.47;5.90;;;;;;;;;;5052726;28;20459;-69
2021/12/20 14:39:10;;;;;;;10.33;5.27;;;;;;;;;;5052631;28;20389;-69
2021/12/20 14:41:38;;;;;;;8.13;4.40;;;;;;;;;;5051285;28;20398;-69
2021/12/20 14:46:54;;;;;;;9.53;4.57;;;;;;;;;;5052975;28;20482;-68
2021/12/20 14:49:23;;;;;;;10.90;4.37;;;;;;;;;;5045183;28;20422;-72